createdAt,value
2019-04-26T00:00:51.287Z,25.20
2019-04-26T00:03:24.707Z,18.27
2019-04-26T00:05:53.866Z,27.10
2019-04-26T00:08:22.682Z,19.50
2019-04-26T00:11:01.890Z,23.38
2019-04-26T00:13:35.126Z,19.85
2019-04-26T00:16:14.951Z,17.95
2019-04-26T00:18:43.754Z,17.27
2019-04-26T00:21:12.557Z,16.65
2019-04-26T00:23:41.740Z,16.32
2019-04-26T00:26:11.099Z,12.47
2019-04-26T00:28:40.966Z,19.77
2019-04-26T00:31:11.392Z,19.45
2019-04-26T00:33:40.334Z,15.10
2019-04-26T00:36:09.142Z,20.27
2019-04-26T00:38:37.994Z,24.63
2019-04-26T00:41:06.815Z,18.17
2019-04-26T00:43:35.740Z,30.80
2019-04-26T00:46:05.786Z,13.83
2019-04-26T00:48:36.005Z,11.68
2019-04-26T00:51:06.099Z,13.68
2019-04-26T00:53:37.032Z,13.40
2019-04-26T00:56:06.654Z,14.83
2019-04-26T00:58:36.030Z,19.12
2019-04-26T01:01:05.274Z,13.45
2019-04-26T01:03:34.595Z,28.60
2019-04-26T01:06:05.005Z,18.02
2019-04-26T01:08:33.866Z,16.23
2019-04-26T01:11:02.740Z,15.83
2019-04-26T01:13:31.824Z,12.07
2019-04-26T01:16:00.646Z,15.03
2019-04-26T01:18:29.483Z,15.60
2019-04-26T01:21:01.068Z,10.03
2019-04-26T01:23:32.234Z,15.88
2019-04-26T01:26:13.102Z,11.65
2019-04-26T01:29:05.196Z,9.38
2019-04-26T01:31:37.002Z,14.60
2019-04-26T01:34:06.162Z,16.77
2019-04-26T01:36:36.867Z,8.85
2019-04-26T01:39:10.323Z,13.78
2019-04-26T01:41:44.134Z,12.10
2019-04-26T01:44:32.894Z,15.10
2019-04-26T01:47:01.751Z,12.18
2019-04-26T01:49:30.767Z,9.53
2019-04-26T01:52:09.190Z,9.65
2019-04-26T01:54:43.397Z,17.57
2019-04-26T01:57:12.699Z,14.13
2019-04-26T01:59:45.786Z,12.75
2019-04-26T02:02:19.385Z,15.58
2019-04-26T02:04:53.091Z,11.22
2019-04-26T02:07:30.380Z,11.18
2019-04-26T02:09:59.485Z,15.10
2019-04-26T02:12:28.786Z,17.62
2019-04-26T02:14:57.614Z,9.23
2019-04-26T02:17:27.280Z,12.88
2019-04-26T02:19:56.515Z,12.88
2019-04-26T02:22:30.051Z,10.48
2019-04-26T02:24:59.100Z,17.05
2019-04-26T02:27:30.316Z,9.35
2019-04-26T02:30:00.781Z,12.33
2019-04-26T02:32:31.381Z,16.42
2019-04-26T02:35:01.780Z,14.63
2019-04-26T02:37:32.183Z,13.65
2019-04-26T02:40:01.516Z,19.60
2019-04-26T02:42:34.948Z,18.48
2019-04-26T02:45:17.239Z,15.53
2019-04-26T02:47:57.006Z,9.20
2019-04-26T02:50:35.404Z,6.80
2019-04-26T02:53:13.763Z,6.90
2019-04-26T02:56:15.644Z,10.23
2019-04-26T02:58:59.512Z,14.50
2019-04-26T03:01:29.966Z,12.30
2019-04-26T03:04:00.121Z,9.48
2019-04-26T03:06:34.278Z,10.85
2019-04-26T03:09:06.685Z,10.23
2019-04-26T03:11:41.010Z,8.48
2019-04-26T03:14:13.850Z,15.83
2019-04-26T03:16:47.151Z,11.22
2019-04-26T03:19:20.518Z,10.72
2019-04-26T03:21:55.546Z,15.28
2019-04-26T03:24:35.055Z,6.50
2019-04-26T03:27:12.293Z,7.55
2019-04-26T03:29:44.065Z,6.65
2019-04-26T03:32:39.227Z,8.60
2019-04-26T03:35:39.859Z,8.65
2019-04-26T03:38:20.574Z,8.48
2019-04-26T03:41:02.668Z,15.80
2019-04-26T03:43:39.300Z,12.68
2019-04-26T03:46:25.736Z,9.23
2019-04-26T03:49:17.057Z,9.93
2019-04-26T03:51:48.793Z,8.75
2019-04-26T03:54:32.349Z,8.58
2019-04-26T03:57:14.304Z,5.55
2019-04-26T03:59:50.144Z,7.95
2019-04-26T04:02:36.906Z,12.75
2019-04-26T04:05:28.280Z,14.85
2019-04-26T04:08:00.089Z,11.48
2019-04-26T04:10:49.910Z,13.65
2019-04-26T04:13:42.942Z,10.10
2019-04-26T04:16:26.083Z,9.85
2019-04-26T04:19:00.824Z,9.43
2019-04-26T04:21:41.374Z,12.68
2019-04-26T04:24:13.558Z,10.28
2019-04-26T04:27:09.431Z,10.13
2019-04-26T04:29:48.570Z,9.55
2019-04-26T04:32:20.587Z,10.93
2019-04-26T04:34:55.375Z,8.70
2019-04-26T04:37:27.122Z,11.60
2019-04-26T04:40:09.632Z,13.58
2019-04-26T04:43:01.300Z,7.20
2019-04-26T04:45:42.433Z,10.65
2019-04-26T04:48:27.751Z,7.12
2019-04-26T04:51:17.789Z,6.90
2019-04-26T04:54:07.635Z,9.73
2019-04-26T04:56:54.524Z,8.83
2019-04-26T04:59:26.278Z,15.23
2019-04-26T05:02:22.406Z,12.40
2019-04-26T05:05:23.175Z,8.53
2019-04-26T05:08:17.542Z,8.45
2019-04-26T05:10:55.092Z,11.88
2019-04-26T05:13:29.670Z,8.90
2019-04-26T05:16:37.930Z,10.28
2019-04-26T05:19:29.351Z,8.15
2019-04-26T05:22:10.294Z,8.73
2019-04-26T05:24:45.683Z,12.15
2019-04-26T05:27:37.085Z,8.13
2019-04-26T05:30:24.742Z,7.92
2019-04-26T05:33:14.673Z,10.38
2019-04-26T05:36:05.759Z,14.63
2019-04-26T05:38:40.478Z,10.10
2019-04-26T05:41:18.852Z,10.68
2019-04-26T05:44:17.797Z,7.72
2019-04-26T05:47:09.280Z,8.18
2019-04-26T05:50:00.755Z,14.00
2019-04-26T05:52:39.628Z,14.95
2019-04-26T05:55:34.020Z,14.38
2019-04-26T05:58:30.832Z,13.05
2019-04-26T06:01:29.232Z,13.43
2019-04-26T06:04:08.443Z,16.87
2019-04-26T06:06:41.822Z,12.80
2019-04-26T06:09:48.545Z,14.53
2019-04-26T06:12:52.474Z,13.20
2019-04-26T06:16:00.143Z,11.78
2019-04-26T06:18:42.437Z,10.90
2019-04-26T06:21:47.593Z,16.87
2019-04-26T06:24:19.369Z,18.07
2019-04-26T06:27:14.135Z,16.12
2019-04-26T06:30:01.412Z,17.00
2019-04-26T06:33:00.374Z,14.10
2019-04-26T06:35:28.581Z,22.70
2019-04-26T06:38:21.500Z,18.15
2019-04-26T06:41:21.339Z,28.23
2019-04-26T06:44:08.843Z,21.80
2019-04-26T06:47:15.692Z,14.18
2019-04-26T06:50:13.578Z,18.87
2019-04-26T06:53:12.948Z,28.45
2019-04-26T06:55:46.565Z,18.02
2019-04-26T06:58:36.728Z,15.85
2019-04-26T07:01:24.941Z,17.92
2019-04-26T07:04:12.461Z,15.88
2019-04-26T07:07:17.974Z,21.77
2019-04-26T07:10:02.187Z,16.00
2019-04-26T07:12:41.558Z,15.98
2019-04-26T07:15:28.005Z,18.77
2019-04-26T07:18:00.930Z,16.45
2019-04-26T07:20:33.847Z,16.65
2019-04-26T07:23:25.046Z,16.20
2019-04-26T07:26:14.928Z,17.60
2019-04-26T07:28:57.967Z,19.85
2019-04-26T07:31:46.009Z,17.52
2019-04-26T07:34:31.331Z,19.10
2019-04-26T07:37:19.559Z,23.07
2019-04-26T07:40:07.846Z,18.50
2019-04-26T07:42:56.567Z,16.70
2019-04-26T07:45:44.806Z,15.40
2019-04-26T07:48:42.262Z,16.35
2019-04-26T07:51:50.761Z,13.05
2019-04-26T07:54:42.381Z,14.95
2019-04-26T07:57:24.493Z,18.10
2019-04-26T08:00:30.954Z,13.08
2019-04-26T08:03:10.810Z,8.87
2019-04-26T08:06:00.891Z,10.80
2019-04-26T08:08:38.579Z,14.73
2019-04-26T08:11:10.817Z,12.53
2019-04-26T08:13:42.739Z,12.58
2019-04-26T08:16:25.353Z,12.15
2019-04-26T08:19:05.700Z,11.03
2019-04-26T08:21:42.792Z,8.40
2019-04-26T08:24:16.753Z,9.50
2019-04-26T08:26:48.551Z,8.23
2019-04-26T08:29:20.025Z,15.48
2019-04-26T08:31:53.410Z,14.85
2019-04-26T08:34:29.775Z,12.37
2019-04-26T08:37:06.687Z,12.33
2019-04-26T08:39:44.968Z,10.85
2019-04-26T08:42:12.079Z,12.75
2019-04-26T08:44:59.752Z,13.35
2019-04-26T08:47:31.537Z,14.58
2019-04-26T08:50:09.933Z,12.53
2019-04-26T08:52:38.126Z,13.45
2019-04-26T08:55:08.558Z,11.57
2019-04-26T08:57:40.041Z,12.25
2019-04-26T09:00:16.319Z,13.00
2019-04-26T09:02:55.292Z,15.25
2019-04-26T09:05:31.939Z,11.75
2019-04-26T09:08:03.921Z,11.95
2019-04-26T09:10:39.175Z,14.70
2019-04-26T09:13:08.527Z,12.35
2019-04-26T09:15:56.981Z,14.05
2019-04-26T09:18:27.852Z,10.90
2019-04-26T09:20:56.622Z,11.30
2019-04-26T09:23:39.774Z,13.90
2019-04-26T09:26:08.528Z,15.32
2019-04-26T09:28:52.893Z,8.53
2019-04-26T09:31:39.525Z,10.08
2019-04-26T09:36:39.942Z,12.05
2019-04-26T09:39:10.440Z,13.03
2019-04-26T09:41:39.399Z,10.78
2019-04-26T09:44:26.134Z,7.97
2019-04-26T09:46:56.537Z,10.72
2019-04-26T09:49:32.734Z,13.32
2019-04-26T09:52:02.754Z,8.53
2019-04-26T09:54:31.568Z,16.45
2019-04-26T09:57:00.434Z,10.55
2019-04-26T09:59:29.286Z,12.80
2019-04-26T10:01:59.459Z,13.05
2019-04-26T10:04:28.602Z,19.48
2019-04-26T10:06:59.498Z,11.38
2019-04-26T10:09:30.921Z,12.88
2019-04-26T10:12:17.912Z,12.25
2019-04-26T10:14:48.404Z,14.58
2019-04-26T10:17:22.145Z,18.00
2019-04-26T10:19:55.531Z,9.95
2019-04-26T10:22:29.327Z,13.93
2019-04-26T10:25:02.573Z,9.95
2019-04-26T10:27:32.359Z,11.70
2019-04-26T10:30:08.915Z,13.75
2019-04-26T10:32:38.620Z,11.12
2019-04-26T10:35:07.649Z,8.45
2019-04-26T10:37:39.679Z,13.00
2019-04-26T10:40:07.722Z,11.10
2019-04-26T10:42:36.627Z,13.68
2019-04-26T10:45:14.735Z,11.53
2019-04-26T10:50:10.740Z,10.65
2019-04-26T10:52:54.310Z,10.82
2019-04-26T10:55:22.653Z,11.97
2019-04-26T10:57:56.863Z,10.28
2019-04-26T11:00:27.500Z,10.58
2019-04-26T11:02:56.340Z,15.53
2019-04-26T11:05:26.919Z,12.25
2019-04-26T11:07:55.850Z,13.43
2019-04-26T11:10:24.763Z,11.95
2019-04-26T11:12:53.673Z,12.37
2019-04-26T11:15:22.560Z,10.05
2019-04-26T11:17:51.515Z,12.37
2019-04-26T11:20:20.359Z,11.60
2019-04-26T11:22:49.217Z,13.15
2019-04-26T11:25:18.065Z,10.78
2019-04-26T11:27:48.654Z,9.48
2019-04-26T11:30:20.918Z,14.90
2019-04-26T11:32:48.203Z,11.45
2019-04-26T11:35:17.060Z,9.60
2019-04-26T11:37:46.460Z,10.18
2019-04-26T11:40:15.852Z,6.92
2019-04-26T11:42:45.681Z,7.45
2019-04-26T11:45:16.156Z,9.45
2019-04-26T11:47:55.490Z,6.80
2019-04-26T11:50:16.501Z,8.45
2019-04-26T11:52:46.393Z,9.60
2019-04-26T11:55:15.356Z,6.05
2019-04-26T11:57:47.508Z,10.05
2019-04-26T12:00:20.969Z,12.03
2019-04-26T12:02:50.654Z,13.28
2019-04-26T12:05:40.201Z,15.13
2019-04-26T12:08:10.591Z,16.17
2019-04-26T12:10:40.453Z,16.23
2019-04-26T12:13:09.942Z,16.62
2019-04-26T12:15:43.214Z,17.12
2019-04-26T12:18:09.754Z,13.53
2019-04-26T12:20:39.883Z,15.18
2019-04-26T12:23:08.743Z,15.28
2019-04-26T12:25:38.753Z,19.02
2019-04-26T12:28:08.142Z,18.37
2019-04-26T12:30:37.022Z,19.52
2019-04-26T12:33:06.038Z,21.07
2019-04-26T12:35:34.876Z,17.73
2019-04-26T12:38:03.687Z,20.50
2019-04-26T12:40:32.494Z,16.20
2019-04-26T12:43:01.375Z,16.20
2019-04-26T12:45:40.850Z,16.82
2019-04-26T12:48:12.329Z,13.58
2019-04-26T12:50:42.228Z,19.10
2019-04-26T12:53:11.148Z,20.15
2019-04-26T12:55:40.042Z,21.65
2019-04-26T12:58:11.159Z,21.00
2019-04-26T13:00:52.944Z,17.48
2019-04-26T13:03:20.132Z,17.60
2019-04-26T13:05:42.785Z,21.23
2019-04-26T13:08:16.541Z,19.45
2019-04-26T13:10:48.412Z,18.80
2019-04-26T13:13:30.940Z,17.55
2019-04-26T13:16:07.238Z,26.10
2019-04-26T13:18:36.106Z,24.72
2019-04-26T13:21:08.773Z,20.20
2019-04-26T13:23:41.029Z,18.45
2019-04-26T13:26:10.698Z,21.90
2019-04-26T13:28:39.722Z,18.75
2019-04-26T13:31:09.780Z,21.33
2019-04-26T13:33:39.674Z,15.90
2019-04-26T13:36:10.615Z,21.10
2019-04-26T13:38:43.575Z,21.15
2019-04-26T13:41:10.642Z,19.40
2019-04-26T13:43:39.484Z,14.43
2019-04-26T13:46:25.007Z,13.85
2019-04-26T13:49:14.342Z,21.30
2019-04-26T13:51:45.654Z,19.00
2019-04-26T13:54:16.616Z,19.20
2019-04-26T13:56:45.140Z,18.02
2019-04-26T13:59:14.135Z,20.90
2019-04-26T14:01:43.011Z,15.18
2019-04-26T14:04:11.887Z,15.48
2019-04-26T14:06:40.946Z,18.67
2019-04-26T14:09:11.561Z,20.20
2019-04-26T14:11:40.409Z,19.48
2019-04-26T14:14:09.238Z,18.67
2019-04-26T14:16:38.177Z,18.80
2019-04-26T14:19:14.784Z,18.42
2019-04-26T14:21:37.677Z,16.65
2019-04-26T14:24:23.866Z,21.68
2019-04-26T14:26:55.651Z,14.80
2019-04-26T14:29:28.299Z,16.50
2019-04-26T14:31:55.043Z,16.27
2019-04-26T14:34:23.918Z,18.20
2019-04-26T14:37:05.528Z,13.03
2019-04-26T14:39:33.869Z,21.07
2019-04-26T14:41:57.042Z,20.90
2019-04-26T14:44:27.338Z,18.50
2019-04-26T14:46:56.766Z,10.10
2019-04-26T14:49:38.275Z,12.75
2019-04-26T14:51:56.194Z,18.42
2019-04-26T14:54:25.095Z,15.83
2019-04-26T14:56:53.930Z,18.52
2019-04-26T14:59:24.435Z,19.67
2019-04-26T15:01:57.917Z,14.43
2019-04-26T15:04:43.385Z,21.95
2019-04-26T15:07:12.299Z,15.00
2019-04-26T15:09:42.787Z,11.43
2019-04-26T15:12:14.239Z,15.53
2019-04-26T15:14:42.392Z,22.10
2019-04-26T15:17:12.484Z,16.52
2019-04-26T15:19:45.927Z,13.65
2019-04-26T15:22:12.220Z,16.52
2019-04-26T15:24:42.181Z,14.58
2019-04-26T15:27:11.273Z,18.07
2019-04-26T15:29:40.160Z,19.07
2019-04-26T15:32:08.952Z,18.02
2019-04-26T15:34:38.883Z,14.90
2019-04-26T15:37:07.727Z,19.52
2019-04-26T15:39:44.534Z,12.93
2019-04-26T15:42:23.772Z,16.40
2019-04-26T15:44:57.448Z,19.90
2019-04-26T15:47:28.051Z,21.50
2019-04-26T15:49:58.495Z,29.60
2019-04-26T15:52:30.125Z,19.67
2019-04-26T15:54:58.864Z,26.12
2019-04-26T15:57:32.406Z,20.62
2019-04-26T15:59:59.269Z,29.02
2019-04-26T16:02:28.150Z,17.98
2019-04-26T16:04:56.963Z,22.30
2019-04-26T16:07:28.880Z,21.40
2019-04-26T16:09:57.581Z,22.60
2019-04-26T16:12:27.269Z,31.12
2019-04-26T16:14:56.220Z,27.82
2019-04-26T16:17:25.940Z,23.00
2019-04-26T16:19:56.162Z,23.02
2019-04-26T16:22:25.752Z,30.92
2019-04-26T16:24:58.195Z,22.37
2019-04-26T16:27:32.405Z,26.70
2019-04-26T16:30:02.637Z,26.60
2019-04-26T16:32:36.216Z,24.10
2019-04-26T16:35:07.206Z,26.05
2019-04-26T16:37:36.039Z,26.37
2019-04-26T16:40:07.871Z,34.08
2019-04-26T16:42:37.447Z,26.12
2019-04-26T16:45:08.182Z,31.60
2019-04-26T16:47:45.196Z,29.90
2019-04-26T16:50:08.056Z,25.85
2019-04-26T16:52:42.324Z,24.87
2019-04-26T16:57:43.862Z,25.90
2019-04-26T17:00:16.397Z,28.17
2019-04-26T17:02:44.020Z,24.25
2019-04-26T17:05:21.150Z,27.73
2019-04-26T17:07:45.916Z,23.55
2019-04-26T17:09:38.415Z,24.00
2019-04-26T17:10:16.609Z,27.93
2019-04-26T17:12:46.255Z,30.65
2019-04-26T17:15:17.465Z,27.93
2019-04-26T17:17:50.129Z,29.12
2019-04-26T17:20:16.287Z,19.37
2019-04-26T17:22:59.640Z,22.15
2019-04-26T17:25:41.975Z,28.07
2019-04-26T17:28:14.017Z,28.17
2019-04-26T17:30:45.024Z,26.10
2019-04-26T17:33:13.955Z,27.65
2019-04-26T17:35:42.801Z,23.22
2019-04-26T17:38:11.684Z,21.77
2019-04-26T17:40:41.089Z,27.65
2019-04-26T17:43:11.432Z,21.57
2019-04-26T17:45:44.017Z,21.27
2019-04-26T17:48:14.057Z,19.37
2019-04-26T17:50:42.382Z,24.23
2019-04-26T17:53:26.225Z,30.90
2019-04-26T17:55:54.450Z,19.23
2019-04-26T17:58:27.480Z,26.48
2019-04-26T18:00:51.792Z,31.25
2019-04-26T18:03:21.538Z,23.38
2019-04-26T18:05:57.142Z,24.72
2019-04-26T18:08:36.217Z,25.88
2019-04-26T18:10:51.623Z,20.65
2019-04-26T18:13:22.150Z,25.62
2019-04-26T18:15:52.737Z,21.25
2019-04-26T18:18:40.325Z,25.97
2019-04-26T18:21:27.448Z,26.75
2019-04-26T18:23:57.284Z,26.37
2019-04-26T18:26:26.234Z,18.30
2019-04-26T18:28:55.372Z,20.23
2019-04-26T18:31:28.927Z,20.85
2019-04-26T18:34:00.510Z,20.10
2019-04-26T18:36:27.668Z,24.30
2019-04-26T18:38:55.713Z,14.75
2019-04-26T18:41:28.628Z,20.25
2019-04-26T18:43:59.920Z,15.72
2019-04-26T18:46:31.888Z,21.23
2019-04-26T18:49:00.398Z,17.70
2019-04-26T18:51:29.243Z,27.20
2019-04-26T18:54:02.777Z,21.33
2019-04-26T18:56:39.723Z,21.57
2019-04-26T18:59:07.279Z,19.98
2019-04-26T19:01:40.896Z,20.72
2019-04-26T19:04:12.505Z,22.25
2019-04-26T19:06:41.949Z,19.50
2019-04-26T19:09:09.054Z,22.77
2019-04-26T19:11:42.093Z,20.65
2019-04-26T19:14:19.075Z,14.05
2019-04-26T19:16:58.872Z,17.73
2019-04-26T19:19:43.982Z,19.00
2019-04-26T19:22:15.473Z,17.85
2019-04-26T19:24:43.540Z,17.92
2019-04-26T19:27:12.576Z,19.50
2019-04-26T19:29:43.235Z,15.88
2019-04-26T19:32:12.038Z,15.53
2019-04-26T19:34:42.105Z,11.97
2019-04-26T19:37:11.111Z,20.57
2019-04-26T19:39:40.049Z,22.65
2019-04-26T19:42:08.852Z,21.97
2019-04-26T19:44:37.728Z,18.35
2019-04-26T19:47:23.507Z,19.57
2019-04-26T19:50:13.338Z,17.70
2019-04-26T19:52:55.456Z,18.15
2019-04-26T19:55:41.283Z,17.73
2019-04-26T19:58:16.005Z,18.37
2019-04-26T20:00:43.433Z,15.43
2019-04-26T20:03:13.497Z,18.42
2019-04-26T20:05:44.072Z,14.10
2019-04-26T20:08:13.279Z,17.82
2019-04-26T20:10:45.475Z,22.22
2019-04-26T20:13:15.069Z,22.37
2019-04-26T20:15:43.182Z,20.02
2019-04-26T20:18:12.341Z,14.55
2019-04-26T20:20:41.513Z,18.87
2019-04-26T20:23:12.255Z,21.70
2019-04-26T20:25:41.282Z,17.12
2019-04-26T20:28:10.087Z,12.65
2019-04-26T20:30:46.589Z,15.10
2019-04-26T20:33:15.409Z,19.77
2019-04-26T20:35:44.249Z,22.20
2019-04-26T20:38:14.113Z,24.92
2019-04-26T20:40:43.381Z,17.50
2019-04-26T20:43:23.753Z,26.82
2019-04-26T20:46:02.042Z,18.75
2019-04-26T20:48:14.628Z,19.67
2019-04-26T20:50:43.439Z,17.05
2019-04-26T20:53:12.380Z,14.53
2019-04-26T20:55:42.744Z,21.55
2019-04-26T20:58:11.922Z,16.77
2019-04-26T21:00:53.537Z,18.45
2019-04-26T21:03:23.042Z,14.70
2019-04-26T21:05:46.121Z,21.55
2019-04-26T21:08:12.552Z,14.30
2019-04-26T21:10:41.781Z,17.85
2019-04-26T21:13:12.232Z,16.87
2019-04-26T21:15:53.410Z,22.17
2019-04-26T21:18:12.342Z,13.38
2019-04-26T21:20:42.495Z,15.80
2019-04-26T21:23:13.260Z,17.30
2019-04-26T21:25:43.583Z,11.45
2019-04-26T21:28:17.041Z,13.15
2019-04-26T21:30:47.427Z,12.13
2019-04-26T21:33:35.880Z,11.97
2019-04-26T21:36:05.988Z,9.53
2019-04-26T21:38:39.251Z,14.20
2019-04-26T21:41:11.553Z,14.78
2019-04-26T21:43:40.162Z,16.75
2019-04-26T21:46:14.319Z,10.45
2019-04-26T21:48:41.931Z,11.35
2019-04-26T21:51:14.557Z,11.18
2019-04-26T21:53:42.201Z,11.30
2019-04-26T21:56:11.572Z,18.17
2019-04-26T21:58:41.291Z,11.83
2019-04-26T22:01:15.610Z,12.68
2019-04-26T22:03:47.534Z,16.35
2019-04-26T22:06:14.239Z,15.85
2019-04-26T22:08:44.839Z,15.90
2019-04-26T22:11:19.789Z,18.50
2019-04-26T22:13:54.442Z,13.10
2019-04-26T22:16:34.136Z,9.25
2019-04-26T22:19:12.741Z,13.85
2019-04-26T22:22:04.297Z,9.63
2019-04-26T22:24:33.700Z,16.10
2019-04-26T22:27:03.818Z,10.98
2019-04-26T22:29:33.342Z,12.40
2019-04-26T22:32:03.660Z,14.33
2019-04-26T22:34:32.631Z,12.47
2019-04-26T22:37:10.940Z,7.42
2019-04-26T22:39:39.600Z,18.57
2019-04-26T22:42:03.727Z,16.37
2019-04-26T22:44:50.723Z,15.28
2019-04-26T22:47:21.184Z,15.03
2019-04-26T22:49:50.020Z,14.33
2019-04-26T22:52:18.935Z,16.45
2019-04-26T22:54:47.724Z,17.55
2019-04-26T22:57:16.698Z,11.83
2019-04-26T22:59:49.895Z,23.60
2019-04-26T23:02:18.308Z,13.25
2019-04-26T23:04:47.652Z,10.38
2019-04-26T23:07:18.219Z,12.95
2019-04-26T23:09:51.860Z,12.25
2019-04-26T23:12:25.078Z,13.95
2019-04-26T23:14:54.921Z,9.60
2019-04-26T23:17:40.207Z,13.78
2019-04-26T23:20:19.432Z,12.18
2019-04-26T23:22:49.353Z,11.73
2019-04-26T23:25:18.213Z,14.40
2019-04-26T23:27:50.446Z,17.57
2019-04-26T23:30:17.655Z,15.70
2019-04-26T23:32:48.471Z,17.00
2019-04-26T23:35:16.957Z,11.33
2019-04-26T23:37:45.768Z,11.90
2019-04-26T23:40:14.641Z,8.10
2019-04-26T23:42:43.670Z,7.62
2019-04-26T23:45:14.402Z,16.00
2019-04-26T23:47:43.814Z,9.50
2019-04-26T23:50:14.052Z,9.08
2019-04-26T23:52:44.453Z,8.80
2019-04-26T23:55:13.560Z,9.00
2019-04-26T23:57:43.474Z,10.18
